createdAt,value
2023-04-26T00:02:18.508Z,4.50
2023-04-26T00:04:47.280Z,4.50
2023-04-26T00:07:15.677Z,4.40
2023-04-26T00:09:44.234Z,4.40
2023-04-26T00:12:11.864Z,4.40
2023-04-26T00:14:38.665Z,4.40
2023-04-26T00:17:05.420Z,4.40
2023-04-26T00:19:32.107Z,4.40
2023-04-26T00:21:58.872Z,4.40
2023-04-26T00:24:25.763Z,4.30
2023-04-26T00:26:55.951Z,4.30
2023-04-26T00:29:23.366Z,4.30
2023-04-26T00:31:50.664Z,4.30
2023-04-26T00:34:17.481Z,4.20
2023-04-26T00:36:44.216Z,4.20
2023-04-26T00:39:10.946Z,4.10
2023-04-26T00:41:37.696Z,4.10
2023-04-26T00:44:04.724Z,4.10
2023-04-26T00:46:31.457Z,4.00
2023-04-26T00:48:58.222Z,4.10
2023-04-26T00:51:24.921Z,4.00
2023-04-26T00:53:51.637Z,4.00
2023-04-26T00:56:18.876Z,4.10
2023-04-26T00:58:46.171Z,4.00
2023-04-26T01:01:13.331Z,4.10
2023-04-26T01:03:40.324Z,4.00
2023-04-26T01:06:07.451Z,4.00
2023-04-26T01:08:36.946Z,3.90
2023-04-26T01:11:04.677Z,4.00
2023-04-26T01:13:32.515Z,4.00
2023-04-26T01:15:59.860Z,4.00
2023-04-26T01:18:26.992Z,3.90
2023-04-26T01:20:53.937Z,3.80
2023-04-26T01:23:20.857Z,3.80
2023-04-26T01:25:48.396Z,3.80
2023-04-26T01:28:15.048Z,3.80
2023-04-26T01:30:41.757Z,3.80
2023-04-26T01:33:08.499Z,3.80
2023-04-26T01:35:35.438Z,3.80
2023-04-26T01:38:04.194Z,3.70
2023-04-26T01:40:30.842Z,3.70
2023-04-26T01:42:58.083Z,3.70
2023-04-26T01:45:24.832Z,3.60
2023-04-26T01:48:20.836Z,3.60
2023-04-26T01:50:47.485Z,3.60
2023-04-26T01:53:14.794Z,3.60
2023-04-26T01:55:42.635Z,3.70
2023-04-26T01:58:09.471Z,3.60
2023-04-26T02:00:36.655Z,3.60
2023-04-26T02:03:04.164Z,3.60
2023-04-26T02:05:30.935Z,3.50
2023-04-26T02:07:57.650Z,3.40
2023-04-26T02:10:24.325Z,3.50
2023-04-26T02:12:50.970Z,3.50
2023-04-26T02:15:17.766Z,3.50
2023-04-26T02:17:44.632Z,3.50
2023-04-26T02:20:11.830Z,3.50
2023-04-26T02:22:38.577Z,3.50
2023-04-26T02:25:06.646Z,3.50
2023-04-26T02:27:33.654Z,3.40
2023-04-26T02:30:00.823Z,3.40
2023-04-26T02:32:27.938Z,3.40
2023-04-26T02:34:54.646Z,3.40
2023-04-26T02:37:22.113Z,3.40
2023-04-26T02:39:51.794Z,3.40
2023-04-26T02:42:18.670Z,3.30
2023-04-26T02:44:46.645Z,3.30
2023-04-26T02:47:13.365Z,3.30
2023-04-26T02:49:40.343Z,3.30
2023-04-26T02:52:07.153Z,3.30
2023-04-26T02:54:34.292Z,3.20
2023-04-26T02:57:01.013Z,3.20
2023-04-26T02:59:27.723Z,3.20
2023-04-26T03:01:55.463Z,3.00
2023-04-26T03:04:22.144Z,3.00
2023-04-26T03:06:49.459Z,3.00
2023-04-26T03:09:16.128Z,3.00
2023-04-26T03:11:42.824Z,3.00
2023-04-26T03:14:09.470Z,2.90
2023-04-26T03:16:42.721Z,3.00
2023-04-26T03:19:10.037Z,3.00
2023-04-26T03:21:38.346Z,2.90
2023-04-26T03:24:05.784Z,2.90
2023-04-26T03:26:33.180Z,2.90
2023-04-26T03:28:59.948Z,2.90
2023-04-26T03:31:27.249Z,2.90
2023-04-26T03:33:53.927Z,2.80
2023-04-26T03:36:20.741Z,2.80
2023-04-26T03:38:47.388Z,2.80
2023-04-26T03:41:14.960Z,2.70
2023-04-26T03:43:41.774Z,2.70
2023-04-26T03:46:08.502Z,2.70
2023-04-26T03:48:35.167Z,2.70
2023-04-26T03:51:02.219Z,2.70
2023-04-26T03:53:29.086Z,2.70
2023-04-26T03:55:56.379Z,2.70
2023-04-26T03:58:23.328Z,2.70
2023-04-26T04:00:50.497Z,2.70
2023-04-26T04:03:18.102Z,2.80
2023-04-26T04:05:45.226Z,2.70
2023-04-26T04:08:13.193Z,2.60
2023-04-26T04:10:42.481Z,2.60
2023-04-26T04:13:09.845Z,2.60
2023-04-26T04:15:37.103Z,2.60
2023-04-26T04:18:04.709Z,2.60
2023-04-26T04:20:31.404Z,2.60
2023-04-26T04:22:58.715Z,2.60
2023-04-26T04:25:25.643Z,2.60
2023-04-26T04:27:53.336Z,2.60
2023-04-26T04:30:20.739Z,2.60
2023-04-26T04:32:47.479Z,2.60
2023-04-26T04:35:16.035Z,2.60
2023-04-26T04:37:43.865Z,2.60
2023-04-26T04:40:13.181Z,2.60
2023-04-26T04:42:44.388Z,2.60
2023-04-26T04:45:11.171Z,2.60
2023-04-26T04:47:39.877Z,2.60
2023-04-26T04:50:07.728Z,2.60
2023-04-26T04:52:34.647Z,2.70
2023-04-26T04:55:01.580Z,2.60
2023-04-26T04:57:29.782Z,2.60
2023-04-26T04:59:56.905Z,2.70
2023-04-26T05:02:23.816Z,2.70
2023-04-26T05:04:50.948Z,2.70
2023-04-26T05:07:18.561Z,2.70
2023-04-26T05:09:45.607Z,2.60
2023-04-26T05:12:12.540Z,2.70
2023-04-26T05:14:40.725Z,2.60
2023-04-26T05:17:07.648Z,2.60
2023-04-26T05:19:34.427Z,2.60
2023-04-26T05:22:01.635Z,2.70
2023-04-26T05:24:31.354Z,2.60
2023-04-26T05:26:59.399Z,2.70
2023-04-26T05:29:46.309Z,2.70
2023-04-26T05:32:27.239Z,2.80
2023-04-26T05:35:12.610Z,2.80
2023-04-26T05:37:39.860Z,2.90
2023-04-26T05:40:07.990Z,2.90
2023-04-26T05:42:35.000Z,3.00
2023-04-26T05:45:02.305Z,3.00
2023-04-26T05:47:29.582Z,3.00
2023-04-26T05:49:56.246Z,3.10
2023-04-26T05:52:22.969Z,3.20
2023-04-26T05:54:49.793Z,3.20
2023-04-26T05:57:17.867Z,3.30
2023-04-26T05:59:44.864Z,3.40
2023-04-26T06:02:12.059Z,3.60
2023-04-26T06:04:39.587Z,3.90
2023-04-26T06:07:10.545Z,4.20
2023-04-26T06:09:37.253Z,4.70
2023-04-26T06:12:04.303Z,5.10
2023-04-26T06:14:33.690Z,5.50
2023-04-26T06:17:05.492Z,5.80
2023-04-26T06:19:32.270Z,6.00
2023-04-26T06:21:59.004Z,6.20
2023-04-26T06:24:25.956Z,6.40
2023-04-26T06:26:53.227Z,6.80
2023-04-26T06:29:21.346Z,7.00
2023-04-26T06:31:48.626Z,7.30
2023-04-26T06:34:15.757Z,7.30
2023-04-26T06:36:42.435Z,7.60
2023-04-26T06:39:09.632Z,7.90
2023-04-26T06:41:38.002Z,8.10
2023-04-26T06:44:04.803Z,7.90
2023-04-26T06:46:31.790Z,7.70
2023-04-26T06:48:58.400Z,7.90
2023-04-26T06:51:25.595Z,7.90
2023-04-26T06:53:53.066Z,8.20
2023-04-26T06:56:19.958Z,8.60
2023-04-26T06:59:03.912Z,8.40
2023-04-26T07:01:33.826Z,8.80
2023-04-26T07:04:07.276Z,8.70
2023-04-26T07:06:34.723Z,8.60
2023-04-26T07:09:02.707Z,8.60
2023-04-26T07:11:29.738Z,8.70
2023-04-26T07:13:56.804Z,9.10
2023-04-26T07:16:23.882Z,9.30
2023-04-26T07:18:52.622Z,9.60
2023-04-26T07:21:19.310Z,9.80
2023-04-26T07:23:46.076Z,9.60
2023-04-26T07:26:12.866Z,9.80
2023-04-26T07:28:39.986Z,9.90
2023-04-26T07:31:09.170Z,9.80
2023-04-26T07:33:36.882Z,9.70
2023-04-26T07:36:03.794Z,9.50
2023-04-26T07:38:30.427Z,9.10
2023-04-26T07:40:57.075Z,9.30
2023-04-26T07:43:24.010Z,9.30
2023-04-26T07:45:51.569Z,9.40
2023-04-26T07:48:18.230Z,9.10
2023-04-26T07:50:45.180Z,8.90
2023-04-26T07:53:11.791Z,8.80
2023-04-26T07:55:38.743Z,9.10
2023-04-26T07:58:06.287Z,9.30
2023-04-26T08:00:38.281Z,9.40
2023-04-26T08:03:05.423Z,9.50
2023-04-26T08:05:32.453Z,9.60
2023-04-26T08:08:00.865Z,9.40
2023-04-26T08:10:27.899Z,9.00
2023-04-26T08:12:54.692Z,9.00
2023-04-26T08:15:21.526Z,9.00
2023-04-26T08:17:48.271Z,9.00
2023-04-26T08:20:14.972Z,9.10
2023-04-26T08:22:41.580Z,9.00
2023-04-26T08:25:08.370Z,9.10
2023-04-26T08:27:35.829Z,9.20
2023-04-26T08:30:02.573Z,9.20
2023-04-26T08:32:29.254Z,9.30
2023-04-26T08:34:56.078Z,9.30
2023-04-26T08:37:22.740Z,9.60
2023-04-26T08:39:49.367Z,9.70
2023-04-26T08:42:18.264Z,9.80
2023-04-26T08:44:45.944Z,9.60
2023-04-26T08:47:43.055Z,9.80
2023-04-26T08:50:12.285Z,9.80
2023-04-26T08:52:40.932Z,9.70
2023-04-26T08:55:16.341Z,9.60
2023-04-26T08:57:46.051Z,9.80
2023-04-26T09:00:14.413Z,10.00
2023-04-26T09:02:42.913Z,9.90
2023-04-26T09:05:10.779Z,9.90
2023-04-26T09:08:02.436Z,10.00
2023-04-26T09:10:31.019Z,10.00
2023-04-26T09:12:58.070Z,10.00
2023-04-26T09:15:26.928Z,9.70
2023-04-26T09:17:54.030Z,9.70
2023-04-26T09:20:25.770Z,9.60
2023-04-26T09:23:07.044Z,9.80
2023-04-26T09:25:34.889Z,9.90
2023-04-26T09:28:03.621Z,10.00
2023-04-26T09:30:37.777Z,10.00
2023-04-26T09:33:06.464Z,9.70
2023-04-26T09:35:42.964Z,9.60
2023-04-26T09:38:15.274Z,9.80
2023-04-26T09:40:51.380Z,10.00
2023-04-26T09:43:21.620Z,9.90
2023-04-26T09:45:51.506Z,10.10
2023-04-26T09:48:32.076Z,10.40
2023-04-26T09:51:18.958Z,10.40
2023-04-26T09:53:49.936Z,10.00
2023-04-26T09:56:21.787Z,10.20
2023-04-26T09:58:52.331Z,10.00
2023-04-26T10:01:20.205Z,10.00
2023-04-26T10:03:47.562Z,9.90
2023-04-26T10:06:14.613Z,10.00
2023-04-26T10:08:41.584Z,10.00
2023-04-26T10:11:10.331Z,10.00
2023-04-26T10:13:37.582Z,10.10
2023-04-26T10:16:06.480Z,10.50
2023-04-26T10:18:33.721Z,10.90
2023-04-26T10:21:07.586Z,11.10
2023-04-26T10:23:35.237Z,11.30
2023-04-26T10:26:01.870Z,11.30
2023-04-26T10:28:58.387Z,11.40
2023-04-26T10:32:06.796Z,11.20
2023-04-26T10:34:34.601Z,11.20
2023-04-26T10:37:14.095Z,11.30
2023-04-26T10:39:42.533Z,11.00
2023-04-26T10:42:30.136Z,10.80
2023-04-26T10:45:00.460Z,10.50
2023-04-26T10:47:31.700Z,10.50
2023-04-26T10:50:08.035Z,10.50
2023-04-26T10:52:59.648Z,10.50
2023-04-26T10:55:47.748Z,10.70
2023-04-26T10:58:34.364Z,10.70
2023-04-26T11:01:04.760Z,10.70
2023-04-26T11:03:31.917Z,10.70
2023-04-26T11:05:58.926Z,10.50
2023-04-26T11:08:32.850Z,10.70
2023-04-26T11:11:02.446Z,10.80
2023-04-26T11:13:45.138Z,10.90
2023-04-26T11:16:13.860Z,10.90
2023-04-26T11:18:46.741Z,11.00
2023-04-26T11:21:17.780Z,11.30
2023-04-26T11:23:55.578Z,11.50
2023-04-26T11:26:24.567Z,11.70
2023-04-26T11:28:51.412Z,11.70
2023-04-26T11:31:19.208Z,11.50
2023-04-26T11:33:48.489Z,11.50
2023-04-26T11:36:17.261Z,11.20
2023-04-26T11:38:43.975Z,11.00
2023-04-26T11:41:11.294Z,11.60
2023-04-26T11:43:39.788Z,11.40
2023-04-26T11:46:08.431Z,11.10
2023-04-26T11:48:38.051Z,11.10
2023-04-26T11:51:07.317Z,11.10
2023-04-26T11:53:44.425Z,11.20
2023-04-26T11:56:19.141Z,11.40
2023-04-26T11:58:53.559Z,11.50
2023-04-26T12:01:25.661Z,11.60
2023-04-26T12:03:54.691Z,11.70
2023-04-26T12:06:29.783Z,11.80
2023-04-26T12:08:57.007Z,12.00
2023-04-26T12:11:23.663Z,12.00
2023-04-26T12:13:50.628Z,12.10
2023-04-26T12:18:51.558Z,12.50
2023-04-26T12:21:18.753Z,12.50
2023-04-26T12:23:47.825Z,12.30
2023-04-26T12:26:14.971Z,12.30
2023-04-26T12:28:41.940Z,12.40
2023-04-26T12:31:08.752Z,12.40
2023-04-26T12:33:36.023Z,12.30
2023-04-26T12:36:12.685Z,12.30
2023-04-26T12:38:40.346Z,12.30
2023-04-26T12:41:07.238Z,12.40
2023-04-26T12:43:34.058Z,12.30
2023-04-26T12:46:01.607Z,12.30
2023-04-26T12:48:28.897Z,12.50
2023-04-26T12:50:55.909Z,12.60
2023-04-26T12:53:22.578Z,12.70
2023-04-26T12:55:49.326Z,12.50
2023-04-26T12:58:16.108Z,12.10
2023-04-26T13:00:44.506Z,12.10
2023-04-26T13:03:14.293Z,12.40
2023-04-26T13:05:41.421Z,12.40
2023-04-26T13:08:08.168Z,12.20
2023-04-26T13:10:35.260Z,12.30
2023-04-26T13:13:01.904Z,12.50
2023-04-26T13:15:29.740Z,12.40
2023-04-26T13:17:56.528Z,12.20
2023-04-26T13:20:25.619Z,12.30
2023-04-26T13:22:53.039Z,12.10
2023-04-26T13:25:19.921Z,12.30
2023-04-26T13:27:46.771Z,12.40
2023-04-26T13:30:13.742Z,12.60
2023-04-26T13:32:40.711Z,12.80
2023-04-26T13:35:08.491Z,13.10
2023-04-26T13:37:35.456Z,13.00
2023-04-26T13:40:02.517Z,13.00
2023-04-26T13:42:29.134Z,13.10
2023-04-26T13:44:56.296Z,13.20
2023-04-26T13:47:23.081Z,13.20
2023-04-26T13:49:49.732Z,13.10
2023-04-26T13:52:16.366Z,13.20
2023-04-26T13:54:43.324Z,13.20
2023-04-26T13:57:10.562Z,13.10
2023-04-26T13:59:37.176Z,13.00
2023-04-26T14:02:03.891Z,12.90
2023-04-26T14:04:30.815Z,12.90
2023-04-26T14:06:58.282Z,12.90
2023-04-26T14:09:24.919Z,12.90
2023-04-26T14:12:06.571Z,12.80
2023-04-26T14:14:35.099Z,12.80
2023-04-26T14:17:01.755Z,12.60
2023-04-26T14:19:28.445Z,12.50
2023-04-26T14:21:55.258Z,12.30
2023-04-26T14:24:21.918Z,12.20
2023-04-26T14:26:48.573Z,12.20
2023-04-26T14:29:15.249Z,12.40
2023-04-26T14:31:42.061Z,12.60
2023-04-26T14:34:08.761Z,12.70
2023-04-26T14:36:35.496Z,12.50
2023-04-26T14:39:02.488Z,12.60
2023-04-26T14:41:29.099Z,12.60
2023-04-26T14:43:55.990Z,12.70
2023-04-26T14:46:22.792Z,12.70
2023-04-26T14:48:49.735Z,12.70
2023-04-26T14:51:16.439Z,12.70
2023-04-26T14:53:43.076Z,12.80
2023-04-26T14:56:09.757Z,12.70
2023-04-26T14:58:36.793Z,12.60
2023-04-26T15:01:04.422Z,12.30
2023-04-26T15:03:32.418Z,12.50
2023-04-26T15:05:59.921Z,12.50
2023-04-26T15:08:26.658Z,12.60
2023-04-26T15:10:53.767Z,12.80
2023-04-26T15:13:20.451Z,12.80
2023-04-26T15:15:47.358Z,12.90
2023-04-26T15:18:14.254Z,12.90
2023-04-26T15:20:41.924Z,12.70
2023-04-26T15:23:08.758Z,12.70
2023-04-26T15:25:39.119Z,12.70
2023-04-26T15:28:05.812Z,12.80
2023-04-26T15:30:32.441Z,12.80
2023-04-26T15:33:00.316Z,12.80
2023-04-26T15:35:27.106Z,12.60
2023-04-26T15:37:54.107Z,12.80
2023-04-26T15:40:22.151Z,12.90
2023-04-26T15:42:51.853Z,13.00
2023-04-26T15:45:19.392Z,13.10
2023-04-26T15:47:47.051Z,13.00
2023-04-26T15:50:15.005Z,13.00
2023-04-26T15:52:42.143Z,12.90
2023-04-26T15:55:09.635Z,12.80
2023-04-26T15:57:36.673Z,12.70
2023-04-26T16:00:05.822Z,12.70
2023-04-26T16:02:34.135Z,12.70
2023-04-26T16:05:01.823Z,12.70
2023-04-26T16:07:28.933Z,12.70
2023-04-26T16:09:55.547Z,12.60
2023-04-26T16:12:22.365Z,12.70
2023-04-26T16:14:49.248Z,12.60
2023-04-26T16:17:15.912Z,12.70
2023-04-26T16:19:42.561Z,12.60
2023-04-26T16:22:09.231Z,12.80
2023-04-26T16:24:35.967Z,12.70
2023-04-26T16:27:04.589Z,12.70
2023-04-26T16:29:31.442Z,12.60
2023-04-26T16:31:58.227Z,12.50
2023-04-26T16:34:25.110Z,12.50
2023-04-26T16:36:51.741Z,12.60
2023-04-26T16:39:19.375Z,12.60
2023-04-26T16:41:46.050Z,12.70
2023-04-26T16:44:12.659Z,12.60
2023-04-26T16:46:39.500Z,12.60
2023-04-26T16:49:09.613Z,12.40
2023-04-26T16:51:40.474Z,12.50
2023-04-26T16:54:07.274Z,12.50
2023-04-26T16:56:33.901Z,12.40
2023-04-26T16:59:00.566Z,12.30
2023-04-26T17:01:27.489Z,12.40
2023-04-26T17:03:54.740Z,12.30
2023-04-26T17:06:21.549Z,12.40
2023-04-26T17:08:48.177Z,12.40
2023-04-26T17:11:16.122Z,12.30
2023-04-26T17:13:43.132Z,12.30
2023-04-26T17:16:09.915Z,12.20
2023-04-26T17:18:37.146Z,12.20
2023-04-26T17:21:04.815Z,12.10
2023-04-26T17:23:33.253Z,12.00
2023-04-26T17:26:00.589Z,12.10
2023-04-26T17:28:27.354Z,12.10
2023-04-26T17:30:54.062Z,12.20
2023-04-26T17:33:20.878Z,12.10
2023-04-26T17:35:47.713Z,12.10
2023-04-26T17:38:14.313Z,12.10
2023-04-26T17:40:41.117Z,12.20
2023-04-26T17:43:08.066Z,12.10
2023-04-26T17:45:34.900Z,12.00
2023-04-26T17:48:01.598Z,11.90
2023-04-26T17:50:28.568Z,11.90
2023-04-26T17:52:55.241Z,11.90
2023-04-26T17:55:21.960Z,11.80
2023-04-26T17:57:48.665Z,11.80
2023-04-26T18:00:15.669Z,11.70
2023-04-26T18:02:43.740Z,11.60
2023-04-26T18:05:10.631Z,11.60
2023-04-26T18:07:37.261Z,11.60
2023-04-26T18:10:04.168Z,11.50
2023-04-26T18:12:31.780Z,11.60
2023-04-26T18:14:58.428Z,11.60
2023-04-26T18:17:25.582Z,11.50
2023-04-26T18:19:52.632Z,11.60
2023-04-26T18:22:19.342Z,11.50
2023-04-26T18:24:46.748Z,11.50
2023-04-26T18:27:13.952Z,11.40
2023-04-26T18:29:40.960Z,11.40
2023-04-26T18:32:07.708Z,11.30
2023-04-26T18:34:34.321Z,11.30
2023-04-26T18:37:01.323Z,11.20
2023-04-26T18:39:27.946Z,11.20
2023-04-26T18:41:54.614Z,11.10
2023-04-26T18:44:21.265Z,11.10
2023-04-26T18:46:48.117Z,11.10
2023-04-26T18:49:14.876Z,11.10
2023-04-26T18:51:41.525Z,11.00
2023-04-26T18:54:08.152Z,10.90
2023-04-26T18:56:34.871Z,10.90
2023-04-26T18:59:01.675Z,10.90
2023-04-26T19:01:28.400Z,10.90
2023-04-26T19:03:55.632Z,10.70
2023-04-26T19:06:22.699Z,10.60
2023-04-26T19:08:49.629Z,10.60
2023-04-26T19:11:16.240Z,10.50
2023-04-26T19:13:42.937Z,10.40
2023-04-26T19:16:10.374Z,10.50
2023-04-26T19:18:37.395Z,10.40
2023-04-26T19:21:05.133Z,10.30
2023-04-26T19:23:31.958Z,10.30
2023-04-26T19:26:03.465Z,10.20
2023-04-26T19:28:30.918Z,10.30
2023-04-26T19:30:57.937Z,10.10
2023-04-26T19:33:24.980Z,10.00
2023-04-26T19:35:52.049Z,9.90
2023-04-26T19:38:18.941Z,9.90
2023-04-26T19:40:46.063Z,9.90
2023-04-26T19:43:13.447Z,9.80
2023-04-26T19:45:40.962Z,9.90
2023-04-26T19:48:08.585Z,9.90
2023-04-26T19:50:42.159Z,9.80
2023-04-26T19:53:09.970Z,9.90
2023-04-26T19:55:37.977Z,9.80
2023-04-26T19:58:05.762Z,9.70
2023-04-26T20:00:36.107Z,9.80
2023-04-26T20:03:03.814Z,9.70
2023-04-26T20:05:30.644Z,9.70
2023-04-26T20:07:57.581Z,9.80
2023-04-26T20:10:24.340Z,9.80
2023-04-26T20:12:51.666Z,9.80
2023-04-26T20:15:18.390Z,9.80
2023-04-26T20:17:45.644Z,9.80
2023-04-26T20:20:12.584Z,9.80
2023-04-26T20:22:40.644Z,9.70
2023-04-26T20:25:07.653Z,9.70
2023-04-26T20:27:34.354Z,9.70
2023-04-26T20:30:01.176Z,9.70
2023-04-26T20:32:28.222Z,9.70
2023-04-26T20:34:55.009Z,9.60
2023-04-26T20:37:21.893Z,9.60
2023-04-26T20:39:48.965Z,9.50
2023-04-26T20:42:15.916Z,9.40
2023-04-26T20:44:42.762Z,9.40
2023-04-26T20:47:09.397Z,9.40
2023-04-26T20:49:36.311Z,9.30
2023-04-26T20:52:03.124Z,9.30
2023-04-26T20:54:30.239Z,9.20
2023-04-26T20:56:57.100Z,9.20
2023-04-26T20:59:25.169Z,9.20
2023-04-26T21:01:53.648Z,9.20
2023-04-26T21:04:22.030Z,9.20
2023-04-26T21:06:49.646Z,9.10
2023-04-26T21:09:16.305Z,9.10
2023-04-26T21:11:43.918Z,9.10
2023-04-26T21:14:11.203Z,9.10
2023-04-26T21:16:38.620Z,9.10
2023-04-26T21:19:05.300Z,9.10
2023-04-26T21:21:32.505Z,9.10
2023-04-26T21:23:59.279Z,9.00
2023-04-26T21:26:25.986Z,9.00
2023-04-26T21:28:52.740Z,9.00
2023-04-26T21:31:19.415Z,9.00
2023-04-26T21:33:46.098Z,9.00
2023-04-26T21:36:12.844Z,9.00
2023-04-26T21:38:39.442Z,9.10
2023-04-26T21:41:06.107Z,9.10
2023-04-26T21:43:32.802Z,9.10
2023-04-26T21:45:59.604Z,9.10
2023-04-26T21:48:26.696Z,9.00
2023-04-26T21:50:53.562Z,9.10
2023-04-26T21:53:20.372Z,9.00
2023-04-26T21:55:53.908Z,9.00
2023-04-26T21:58:21.442Z,9.00
2023-04-26T22:00:49.304Z,9.00
2023-04-26T22:03:16.391Z,9.00
2023-04-26T22:05:43.248Z,9.00
2023-04-26T22:08:09.922Z,9.00
2023-04-26T22:10:36.711Z,9.00
2023-04-26T22:13:03.509Z,8.90
2023-04-26T22:15:30.637Z,8.80
2023-04-26T22:17:57.445Z,8.90
2023-04-26T22:20:24.330Z,8.80
2023-04-26T22:22:51.013Z,8.80
2023-04-26T22:25:17.721Z,8.80
2023-04-26T22:27:44.744Z,8.90
2023-04-26T22:30:22.890Z,8.80
2023-04-26T22:32:53.935Z,8.80
2023-04-26T22:35:21.558Z,8.80
2023-04-26T22:37:48.311Z,8.70
2023-04-26T22:40:16.096Z,8.60
2023-04-26T22:42:43.281Z,8.70
2023-04-26T22:45:11.124Z,8.70
2023-04-26T22:47:38.332Z,8.70
2023-04-26T22:50:05.931Z,8.80
2023-04-26T22:52:33.032Z,8.80
2023-04-26T22:55:00.526Z,8.80
2023-04-26T22:57:28.073Z,8.80
2023-04-26T22:59:54.824Z,8.80
2023-04-26T23:02:21.879Z,8.80
2023-04-26T23:04:48.650Z,8.70
2023-04-26T23:07:16.330Z,8.70
2023-04-26T23:09:43.113Z,8.70
2023-04-26T23:12:10.624Z,8.80
2023-04-26T23:14:37.689Z,8.80
2023-04-26T23:17:05.641Z,8.80
2023-04-26T23:19:33.035Z,8.80
2023-04-26T23:22:00.113Z,8.80
2023-04-26T23:24:26.857Z,8.70
2023-04-26T23:26:53.611Z,8.70
2023-04-26T23:29:20.261Z,8.70
2023-04-26T23:31:46.952Z,8.70
2023-04-26T23:34:13.635Z,8.60
2023-04-26T23:36:40.297Z,8.50
2023-04-26T23:39:07.141Z,8.40
2023-04-26T23:41:33.766Z,8.40
2023-04-26T23:44:00.614Z,8.30
2023-04-26T23:46:27.260Z,8.30
2023-04-26T23:48:53.930Z,8.30
2023-04-26T23:51:21.056Z,8.30
2023-04-26T23:53:47.678Z,8.40
2023-04-26T23:56:14.392Z,8.30
2023-04-26T23:58:41.027Z,8.40
